Time;durP1;ratioP1;P1;durP2;ratioP2;P2;SDS_P1;SDS_P2;PMS_P1;PMS_P2;Temp;Humidity;BMP_temperature;BMP_pressure;BME280_temperature;BME280_humidity;BME280_pressure;Samples;Min_cycle;Max_cycle;Signal;HPM_P1;HPM_P2
2021/12/20 00:00:11;;;;;;;0.60;0.60;;;1.30;99.90;;;;;;5094692;28;20457;-71
2021/12/20 00:03:01;;;;;;;1.13;0.50;;;1.30;99.90;;;;;;5096055;28;20416;-70
2021/12/20 00:05:48;;;;;;;0.50;0.50;;;1.30;99.90;;;;;;5094907;28;20946;-69
2021/12/20 00:08:36;;;;;;;0.40;0.40;;;1.20;99.90;;;;;;5074959;28;20992;-68
2021/12/20 00:11:23;;;;;;;0.50;0.50;;;1.20;99.90;;;;;;5073692;28;20459;-68
2021/12/20 00:14:10;;;;;;;1.43;1.33;;;1.20;99.90;;;;;;5072338;28;20424;-69
2021/12/20 00:16:57;;;;;;;0.40;0.40;;;1.10;99.90;;;;;;5073939;28;20420;-69
2021/12/20 00:19:45;;;;;;;0.50;0.50;;;1.10;99.90;;;;;;5072615;28;20946;-69
2021/12/20 00:22:32;;;;;;;0.80;0.60;;;1.00;99.90;;;;;;5073567;28;20465;-70
2021/12/20 00:25:19;;;;;;;0.67;0.50;;;1.00;99.90;;;;;;5073898;28;20426;-68
2021/12/20 00:28:06;;;;;;;0.50;0.50;;;1.00;99.90;;;;;;5074209;28;20449;-69
2021/12/20 00:30:53;;;;;;;0.50;0.50;;;1.00;99.90;;;;;;5073325;28;20434;-68
2021/12/20 00:33:40;;;;;;;0.50;0.50;;;1.00;99.90;;;;;;5074413;28;20448;-68
2021/12/20 00:36:30;;;;;;;0.50;0.50;;;1.00;99.90;;;;;;5073870;28;20461;-69
2021/12/20 00:42:21;;;;;;;3.37;0.60;;;1.10;99.90;;;;;;5074319;28;20420;-71
2021/12/20 00:45:10;;;;;;;0.60;0.60;;;1.00;99.90;;;;;;5078389;28;20967;-68
2021/12/20 00:47:57;;;;;;;0.40;0.40;;;1.00;99.90;;;;;;5084372;28;20432;-69
2021/12/20 00:50:45;;;;;;;0.63;0.53;;;0.90;99.90;;;;;;5081437;28;20447;-68
2021/12/20 00:53:33;;;;;;;0.57;0.50;;;1.00;99.90;;;;;;5073058;28;20458;-68
2021/12/20 00:56:20;;;;;;;0.63;0.60;;;1.00;99.90;;;;;;5073275;28;20423;-68
2021/12/20 00:59:07;;;;;;;0.50;0.50;;;1.10;99.90;;;;;;5073893;28;20806;-68
2021/12/20 01:01:54;;;;;;;0.53;0.53;;;1.00;99.90;;;;;;5073510;28;20412;-68
2021/12/20 01:04:41;;;;;;;0.73;0.73;;;1.00;99.90;;;;;;5073279;28;20412;-68
2021/12/20 01:07:29;;;;;;;0.50;0.50;;;1.00;99.90;;;;;;5073035;28;20500;-69
2021/12/20 01:10:17;;;;;;;0.50;0.50;;;1.00;99.90;;;;;;5072574;28;20438;-68
2021/12/20 01:13:06;;;;;;;0.90;0.90;;;0.90;99.90;;;;;;5073261;28;20517;-69
2021/12/20 01:15:54;;;;;;;0.70;0.70;;;0.90;99.90;;;;;;5073063;28;20430;-68
2021/12/20 01:18:42;;;;;;;0.50;0.50;;;0.90;99.90;;;;;;5071767;28;20427;-69
2021/12/20 01:21:29;;;;;;;0.50;0.50;;;0.90;99.90;;;;;;5072770;28;20469;-68
2021/12/20 01:24:16;;;;;;;0.50;0.50;;;0.90;99.90;;;;;;5072503;28;20424;-68
2021/12/20 01:27:05;;;;;;;0.40;0.40;;;0.90;99.90;;;;;;5072452;28;20968;-68
2021/12/20 01:29:52;;;;;;;0.50;0.50;;;1.00;99.90;;;;;;5072749;28;20447;-68
2021/12/20 01:32:39;;;;;;;0.83;0.83;;;0.90;99.90;;;;;;5073434;28;20871;-69
2021/12/20 01:35:28;;;;;;;0.50;0.50;;;0.90;99.90;;;;;;5091196;28;20461;-68
2021/12/20 01:38:15;;;;;;;0.50;0.50;;;0.90;99.90;;;;;;5092744;28;20428;-69
2021/12/20 01:41:02;;;;;;;0.47;0.47;;;0.90;99.90;;;;;;5092592;28;20423;-69
2021/12/20 01:43:50;;;;;;;0.43;0.43;;;1.00;99.90;;;;;;5093602;28;20416;-69
2021/12/20 01:46:37;;;;;;;0.50;0.50;;;0.90;99.90;;;;;;5093993;28;20424;-71
2021/12/20 01:49:24;;;;;;;0.40;0.40;;;0.90;99.90;;;;;;5093374;28;20458;-70
2021/12/20 01:52:14;;;;;;;0.40;0.40;;;0.80;99.90;;;;;;5091002;28;20541;-69
2021/12/20 01:55:02;;;;;;;0.50;0.50;;;0.90;99.90;;;;;;5090521;28;20455;-71
2021/12/20 01:57:49;;;;;;;0.40;0.40;;;0.90;99.90;;;;;;5088303;28;20427;-70
2021/12/20 02:00:49;;;;;;;0.50;0.50;;;0.80;99.90;;;;;;5087910;28;20494;-70
2021/12/20 02:03:39;;;;;;;0.50;0.50;;;0.80;99.90;;;;;;5089675;28;20495;-70
2021/12/20 02:06:32;;;;;;;0.50;0.50;;;0.80;99.90;;;;;;5075188;28;20435;-69
2021/12/20 02:09:20;;;;;;;0.60;0.53;;;0.70;99.90;;;;;;5077377;28;20447;-69
2021/12/20 02:12:08;;;;;;;0.50;0.50;;;0.70;99.90;;;;;;5083440;28;20500;-69
2021/12/20 02:14:55;;;;;;;0.40;0.40;;;0.70;99.90;;;;;;5092954;28;20431;-69
2021/12/20 02:17:43;;;;;;;0.50;0.50;;;0.70;99.90;;;;;;5092344;28;20446;-70
2021/12/20 02:20:34;;;;;;;1.10;1.10;;;0.70;99.90;;;;;;5088132;28;20440;-69
2021/12/20 02:23:21;;;;;;;0.50;0.50;;;0.70;99.90;;;;;;5079107;28;20427;-69
2021/12/20 02:26:11;;;;;;;0.83;0.60;;;0.70;99.90;;;;;;5092851;28;20414;-69
2021/12/20 02:29:04;;;;;;;0.40;0.40;;;0.60;99.90;;;;;;5092476;28;20673;-69
2021/12/20 02:38:01;;;;;;;0.43;0.43;;;0.70;99.90;;;;;;5092119;28;20460;-69
2021/12/20 02:40:57;;;;;;;0.50;0.50;;;0.70;99.90;;;;;;5091988;28;20450;-69
2021/12/20 02:43:53;;;;;;;0.50;0.50;;;0.70;99.90;;;;;;5092821;28;20423;-69
2021/12/20 02:46:50;;;;;;;0.40;0.40;;;0.70;99.90;;;;;;5092290;28;20422;-69
2021/12/20 02:49:37;;;;;;;0.70;0.70;;;0.70;99.90;;;;;;5092684;28;20435;-70
2021/12/20 02:52:24;;;;;;;0.47;0.47;;;0.70;99.90;;;;;;5092018;28;20827;-69
2021/12/20 02:55:13;;;;;;;0.60;0.60;;;0.60;99.90;;;;;;5092352;28;20425;-71
2021/12/20 02:58:00;;;;;;;0.50;0.50;;;0.60;99.90;;;;;;5092157;28;20947;-69
2021/12/20 03:00:47;;;;;;;0.50;0.50;;;0.70;99.90;;;;;;5092175;28;20473;-69
2021/12/20 03:03:34;;;;;;;0.50;0.50;;;0.60;99.90;;;;;;5091789;28;20418;-69
2021/12/20 03:06:26;;;;;;;0.50;0.50;;;0.60;99.90;;;;;;5092278;28;20426;-70
2021/12/20 03:09:16;;;;;;;0.50;0.50;;;0.70;99.90;;;;;;5091728;28;20447;-69
2021/12/20 03:12:07;;;;;;;0.40;0.40;;;0.70;99.90;;;;;;5092150;28;20455;-69
2021/12/20 03:15:00;;;;;;;0.50;0.50;;;0.60;99.90;;;;;;5092111;28;20423;-69
2021/12/20 03:17:48;;;;;;;0.50;0.50;;;0.60;99.90;;;;;;5096353;28;20415;-69
2021/12/20 03:20:35;;;;;;;0.50;0.50;;;0.50;99.90;;;;;;5095592;28;20454;-69
2021/12/20 03:23:22;;;;;;;0.47;0.47;;;0.60;99.90;;;;;;5096879;28;20471;-69
2021/12/20 03:26:08;;;;;;;1.90;0.53;;;0.50;99.90;;;;;;5096232;28;20430;-69
2021/12/20 03:28:57;;;;;;;1.10;1.10;;;0.50;99.90;;;;;;5095344;28;20462;-69
2021/12/20 03:31:44;;;;;;;0.50;0.50;;;0.50;99.90;;;;;;5096152;28;20427;-69
2021/12/20 03:34:31;;;;;;;0.87;0.70;;;0.60;99.90;;;;;;5096052;28;20422;-69
2021/12/20 03:37:17;;;;;;;0.50;0.50;;;0.50;99.90;;;;;;5082972;28;20455;-68
2021/12/20 03:40:06;;;;;;;0.60;0.60;;;0.50;99.90;;;;;;5075084;28;20976;-69
2021/12/20 03:42:52;;;;;;;0.50;0.50;;;0.60;99.90;;;;;;5076410;28;20444;-69
2021/12/20 03:45:44;;;;;;;0.50;0.50;;;0.50;99.90;;;;;;5074743;28;20411;-69
2021/12/20 03:48:31;;;;;;;0.50;0.50;;;0.50;99.90;;;;;;5075608;28;20422;-69
2021/12/20 03:51:18;;;;;;;0.57;0.57;;;0.50;99.90;;;;;;5075189;28;20424;-68
2021/12/20 03:54:06;;;;;;;0.40;0.40;;;0.50;99.90;;;;;;5075202;28;20459;-68
2021/12/20 03:56:53;;;;;;;0.40;0.40;;;0.50;99.90;;;;;;5076004;28;20477;-68
2021/12/20 03:59:40;;;;;;;1.27;0.70;;;0.50;99.90;;;;;;5074502;28;20538;-69
2021/12/20 04:02:29;;;;;;;2.63;1.23;;;0.50;99.90;;;;;;5074450;28;20435;-68
2021/12/20 04:05:16;;;;;;;0.50;0.50;;;0.50;99.90;;;;;;5075446;28;20430;-69
2021/12/20 04:08:04;;;;;;;0.47;0.47;;;0.50;99.90;;;;;;5074771;28;20420;-70
2021/12/20 04:10:51;;;;;;;0.83;0.83;;;0.60;99.90;;;;;;5075403;28;20444;-68
2021/12/20 04:13:38;;;;;;;0.40;0.40;;;0.50;99.90;;;;;;5074528;28;20875;-69
2021/12/20 04:16:25;;;;;;;0.40;0.40;;;0.50;99.90;;;;;;5074315;28;20965;-68
2021/12/20 04:19:14;;;;;;;0.50;0.50;;;0.50;99.90;;;;;;5075413;28;20435;-68
2021/12/20 04:22:00;;;;;;;0.50;0.50;;;0.50;99.90;;;;;;5074181;28;20432;-69
2021/12/20 04:24:47;;;;;;;0.43;0.43;;;0.50;99.90;;;;;;5073961;28;20419;-69
2021/12/20 04:27:34;;;;;;;0.50;0.50;;;0.50;99.90;;;;;;5073907;28;20427;-71
2021/12/20 04:30:21;;;;;;;0.50;0.50;;;0.50;99.90;;;;;;5073241;28;20443;-68
2021/12/20 04:33:08;;;;;;;0.40;0.40;;;0.50;99.90;;;;;;5073489;28;20489;-70
2021/12/20 04:35:56;;;;;;;0.40;0.40;;;0.50;99.90;;;;;;5073724;28;20447;-68
2021/12/20 04:38:44;;;;;;;0.70;0.70;;;0.50;99.90;;;;;;5074036;28;20419;-68
2021/12/20 04:41:31;;;;;;;6.83;0.70;;;0.40;99.90;;;;;;5073790;28;20428;-70
2021/12/20 04:44:17;;;;;;;0.40;0.40;;;0.50;99.90;;;;;;5073918;28;20419;-68
2021/12/20 04:47:04;;;;;;;0.50;0.50;;;0.40;99.90;;;;;;5089162;28;20416;-70
2021/12/20 04:49:51;;;;;;;0.60;0.60;;;0.40;99.90;;;;;;5094147;28;20447;-69
2021/12/20 04:52:41;;;;;;;0.50;0.50;;;0.40;99.90;;;;;;5093183;28;20490;-69
2021/12/20 04:55:29;;;;;;;0.80;0.50;;;0.40;99.90;;;;;;5092786;28;20435;-70
2021/12/20 04:58:16;;;;;;;0.50;0.50;;;0.40;99.90;;;;;;5088744;28;20908;-71
2021/12/20 05:01:03;;;;;;;0.50;0.50;;;0.40;99.90;;;;;;5077778;28;20802;-70
2021/12/20 05:03:50;;;;;;;0.50;0.50;;;0.40;99.90;;;;;;5075499;28;20408;-70
2021/12/20 05:06:36;;;;;;;0.60;0.60;;;0.30;99.90;;;;;;5073910;28;20474;-69
2021/12/20 05:09:28;;;;;;;0.50;0.50;;;0.30;99.90;;;;;;5073120;28;20544;-69
2021/12/20 05:12:15;;;;;;;0.50;0.50;;;0.30;99.90;;;;;;5074663;28;20416;-69
2021/12/20 05:15:02;;;;;;;0.47;0.47;;;0.20;99.90;;;;;;5074452;28;20432;-71
2021/12/20 05:17:50;;;;;;;0.73;0.70;;;0.30;99.90;;;;;;5074286;28;20841;-68
2021/12/20 05:20:37;;;;;;;0.50;0.50;;;0.30;99.90;;;;;;5074278;28;20490;-69
2021/12/20 05:23:24;;;;;;;0.50;0.50;;;0.30;99.90;;;;;;5073299;28;20420;-68
2021/12/20 05:26:12;;;;;;;0.40;0.40;;;0.20;99.90;;;;;;5073763;28;20423;-68
2021/12/20 05:29:00;;;;;;;0.50;0.50;;;0.20;99.90;;;;;;5073485;28;20447;-68
2021/12/20 05:31:47;;;;;;;0.40;0.40;;;0.20;99.90;;;;;;5073445;28;20936;-69
2021/12/20 05:34:35;;;;;;;0.50;0.50;;;0.20;99.90;;;;;;5073900;28;20464;-70
2021/12/20 05:37:22;;;;;;;0.50;0.50;;;0.20;99.90;;;;;;5087947;28;20430;-69
2021/12/20 05:40:11;;;;;;;0.50;0.50;;;0.30;99.90;;;;;;5093764;28;20435;-69
2021/12/20 05:42:59;;;;;;;1.33;0.77;;;0.20;99.90;;;;;;5093957;28;20419;-68
2021/12/20 05:45:46;;;;;;;0.50;0.50;;;0.10;99.90;;;;;;5093831;28;20488;-69
2021/12/20 05:48:33;;;;;;;0.50;0.50;;;0.20;99.90;;;;;;5094115;28;20430;-70
2021/12/20 05:51:20;;;;;;;0.50;0.50;;;0.20;99.90;;;;;;5093103;28;20955;-69
2021/12/20 05:54:07;;;;;;;0.40;0.40;;;0.20;99.90;;;;;;5093500;28;20466;-70
2021/12/20 05:56:54;;;;;;;0.60;0.50;;;0.20;99.90;;;;;;5093886;28;20419;-70
2021/12/20 05:59:42;;;;;;;0.50;0.50;;;0.20;99.90;;;;;;5093133;28;20458;-69
2021/12/20 06:02:29;;;;;;;0.50;0.50;;;0.20;99.90;;;;;;5093562;28;20419;-68
2021/12/20 06:05:16;;;;;;;4.03;1.17;;;0.10;99.90;;;;;;5093253;28;20939;-68
2021/12/20 06:08:03;;;;;;;0.50;0.50;;;0.10;99.90;;;;;;5093597;28;20468;-68
2021/12/20 06:10:50;;;;;;;0.50;0.50;;;0.10;99.90;;;;;;5092616;28;20977;-68
2021/12/20 06:13:37;;;;;;;0.60;0.60;;;0.10;99.90;;;;;;5093149;28;20471;-68
2021/12/20 06:16:25;;;;;;;0.50;0.50;;;0.10;99.90;;;;;;5093374;28;20419;-69
2021/12/20 06:19:12;;;;;;;0.50;0.50;;;0.10;99.90;;;;;;5093076;28;20900;-68
2021/12/20 06:22:00;;;;;;;0.43;0.43;;;0.10;99.90;;;;;;5094320;28;20427;-69
2021/12/20 06:24:47;;;;;;;0.50;0.50;;;0.00;99.90;;;;;;5094659;28;20414;-69
2021/12/20 06:27:34;;;;;;;0.50;0.50;;;0.00;99.90;;;;;;5094108;28;20467;-68
2021/12/20 06:30:21;;;;;;;3.90;1.17;;;0.00;99.90;;;;;;5094218;28;20450;-68
2021/12/20 06:33:09;;;;;;;0.50;0.50;;;0.00;99.90;;;;;;5093745;28;20461;-69
2021/12/20 06:35:56;;;;;;;0.40;0.40;;;0.00;99.90;;;;;;5092471;28;20434;-68
2021/12/20 06:38:46;;;;;;;0.50;0.50;;;0.00;99.90;;;;;;5075453;28;20416;-69
2021/12/20 06:41:33;;;;;;;0.47;0.47;;;0.00;99.90;;;;;;5072758;28;20946;-70
2021/12/20 06:44:20;;;;;;;0.50;0.50;;;0.00;99.90;;;;;;5074226;28;20436;-69
2021/12/20 06:47:07;;;;;;;0.50;0.50;;;0.00;99.90;;;;;;5073753;28;20415;-69
2021/12/20 06:49:55;;;;;;;0.50;0.50;;;-0.10;99.90;;;;;;5075159;28;20496;-69
2021/12/20 06:52:42;;;;;;;0.50;0.50;;;-0.10;99.90;;;;;;5090924;28;20420;-69
2021/12/20 06:55:29;;;;;;;0.70;0.60;;;-0.10;99.90;;;;;;5088078;28;20501;-69
2021/12/20 06:58:16;;;;;;;0.50;0.50;;;-0.10;99.90;;;;;;5079828;28;20454;-70
2021/12/20 07:01:03;;;;;;;0.50;0.50;;;-0.10;99.90;;;;;;5079224;28;20423;-69
2021/12/20 07:03:50;;;;;;;0.60;0.60;;;-0.10;99.90;;;;;;5075697;28;20431;-70
2021/12/20 07:06:38;;;;;;;0.50;0.50;;;-0.10;99.90;;;;;;5079291;28;20819;-68
2021/12/20 07:09:26;;;;;;;0.40;0.40;;;-0.10;99.90;;;;;;5078490;28;20439;-69
2021/12/20 07:12:13;;;;;;;0.50;0.50;;;-0.10;99.90;;;;;;5079554;28;20423;-68
2021/12/20 07:15:00;;;;;;;0.50;0.50;;;-0.10;99.90;;;;;;5094155;28;20458;-70
2021/12/20 07:17:47;;;;;;;0.50;0.50;;;-0.10;99.90;;;;;;5087613;28;20936;-68
2021/12/20 07:20:35;;;;;;;0.90;0.90;;;-0.20;99.90;;;;;;5096404;28;20449;-69
2021/12/20 07:23:23;;;;;;;0.60;0.60;;;0.00;99.90;;;;;;5090014;28;20485;-68
2021/12/20 07:26:12;;;;;;;0.50;0.50;;;0.00;99.90;;;;;;5078453;28;20988;-68
2021/12/20 07:28:59;;;;;;;0.50;0.50;;;0.00;99.90;;;;;;5078567;28;20455;-69
2021/12/20 07:31:46;;;;;;;0.60;0.60;;;0.00;99.90;;;;;;5099199;28;20427;-69
2021/12/20 07:34:33;;;;;;;0.40;0.40;;;0.10;99.90;;;;;;5098602;28;20513;-69
2021/12/20 07:37:21;;;;;;;0.50;0.50;;;0.10;99.90;;;;;;5119643;28;20438;-70
2021/12/20 07:40:13;;;;;;;0.40;0.40;;;0.10;99.90;;;;;;5105867;28;20467;-69
2021/12/20 07:43:00;;;;;;;1.27;1.10;;;0.10;99.90;;;;;;5087248;28;20419;-69
2021/12/20 07:45:48;;;;;;;0.50;0.50;;;0.00;99.90;;;;;;5081513;28;20450;-69
2021/12/20 07:48:35;;;;;;;0.50;0.50;;;0.30;99.90;;;;;;5081290;28;20426;-70
2021/12/20 07:51:23;;;;;;;0.50;0.50;;;0.20;99.90;;;;;;5080146;28;20908;-69
2021/12/20 07:54:10;;;;;;;0.50;0.50;;;0.20;99.90;;;;;;5076506;28;20888;-69
2021/12/20 07:56:58;;;;;;;8.73;1.63;;;0.20;99.90;;;;;;5079692;28;20427;-69
2021/12/20 07:59:45;;;;;;;2.20;2.00;;;0.30;99.90;;;;;;5085184;28;20473;-71
2021/12/20 08:02:32;;;;;;;0.40;0.40;;;0.20;99.90;;;;;;5079996;28;20453;-69
2021/12/20 08:05:19;;;;;;;1.90;1.13;;;0.20;99.90;;;;;;5074857;28;20952;-69
2021/12/20 08:08:07;;;;;;;0.50;0.50;;;0.30;99.90;;;;;;5074306;28;20423;-68
2021/12/20 08:10:54;;;;;;;0.50;0.50;;;0.20;99.90;;;;;;5075296;28;20420;-69
2021/12/20 08:13:45;;;;;;;0.50;0.50;;;0.30;99.90;;;;;;5092565;28;20472;-68
2021/12/20 08:16:32;;;;;;;0.47;0.47;;;0.30;99.90;;;;;;5096212;28;21088;-68
2021/12/20 08:19:18;;;;;;;0.40;0.40;;;0.30;99.90;;;;;;5075578;28;20458;-68
2021/12/20 08:22:06;;;;;;;1.63;1.60;;;0.30;99.90;;;;;;5074911;28;20427;-70
2021/12/20 08:24:53;;;;;;;0.50;0.50;;;0.30;99.90;;;;;;5072363;28;20452;-69
2021/12/20 08:27:40;;;;;;;0.50;0.50;;;0.40;99.90;;;;;;5076915;28;20423;-69
2021/12/20 08:30:29;;;;;;;0.43;0.43;;;0.40;99.90;;;;;;5075111;28;20501;-69
2021/12/20 08:33:16;;;;;;;0.77;0.70;;;0.40;99.90;;;;;;5076569;28;20419;-69
2021/12/20 08:36:05;;;;;;;0.50;0.50;;;0.30;99.90;;;;;;5075228;28;20924;-68
2021/12/20 08:38:52;;;;;;;0.50;0.50;;;0.40;99.90;;;;;;5082193;28;20990;-69
2021/12/20 08:41:40;;;;;;;0.50;0.50;;;0.50;99.90;;;;;;5075333;28;20981;-69
2021/12/20 08:44:27;;;;;;;0.50;0.50;;;0.50;99.90;;;;;;5075909;28;20940;-69
2021/12/20 08:47:17;;;;;;;0.50;0.50;;;0.50;99.90;;;;;;5075937;28;20435;-69
2021/12/20 08:50:07;;;;;;;0.50;0.50;;;0.60;99.90;;;;;;5074262;28;20827;-71
2021/12/20 08:52:55;;;;;;;2.30;2.20;;;0.60;99.90;;;;;;5073605;28;20436;-69
2021/12/20 08:55:42;;;;;;;0.50;0.50;;;0.60;99.90;;;;;;5075250;28;20479;-70
2021/12/20 08:58:29;;;;;;;0.50;0.50;;;0.70;99.90;;;;;;5074067;28;20435;-69
2021/12/20 09:01:17;;;;;;;0.50;0.50;;;0.70;99.90;;;;;;5082407;28;20422;-70
2021/12/20 09:04:07;;;;;;;0.70;0.70;;;0.80;99.90;;;;;;5075252;28;20427;-69
2021/12/20 09:06:54;;;;;;;0.67;0.67;;;0.80;99.90;;;;;;5075674;28;20439;-69
2021/12/20 09:09:44;;;;;;;0.50;0.50;;;0.80;99.90;;;;;;5071840;28;20454;-69
2021/12/20 09:12:31;;;;;;;0.50;0.50;;;0.80;99.90;;;;;;5078333;28;20431;-71
2021/12/20 09:15:18;;;;;;;0.80;0.70;;;0.90;99.90;;;;;;5095392;28;20470;-70
2021/12/20 09:18:07;;;;;;;0.70;0.70;;;1.00;99.90;;;;;;5091475;28;20556;-69
2021/12/20 09:20:56;;;;;;;0.40;0.40;;;1.00;99.90;;;;;;5084523;28;20422;-70
2021/12/20 09:23:45;;;;;;;0.70;0.53;;;1.00;99.90;;;;;;5097573;28;20511;-69
2021/12/20 09:26:32;;;;;;;1.90;0.60;;;1.00;99.90;;;;;;5075580;28;20414;-69
2021/12/20 09:29:19;;;;;;;0.60;0.60;;;1.10;99.90;;;;;;5074598;28;20451;-69
2021/12/20 09:32:06;;;;;;;0.50;0.50;;;1.20;99.90;;;;;;5075441;28;20423;-70
2021/12/20 09:34:54;;;;;;;2.00;0.70;;;1.20;99.90;;;;;;5089832;28;20451;-73
2021/12/20 09:37:46;;;;;;;0.53;0.53;;;1.20;99.90;;;;;;5091985;28;20496;-69
2021/12/20 09:40:37;;;;;;;0.90;0.50;;;1.30;99.90;;;;;;5108030;28;20461;-69
2021/12/20 09:43:25;;;;;;;0.73;0.73;;;1.40;99.90;;;;;;5113790;28;20427;-72
2021/12/20 09:46:13;;;;;;;0.63;0.60;;;1.30;99.90;;;;;;5105665;28;20423;-70
2021/12/20 09:49:00;;;;;;;1.53;0.97;;;1.40;99.90;;;;;;5094426;28;20474;-71
2021/12/20 09:51:47;;;;;;;2.00;0.50;;;1.40;99.90;;;;;;5095937;28;20435;-74
2021/12/20 09:54:37;;;;;;;0.60;0.60;;;1.50;99.90;;;;;;5094907;28;20475;-70
2021/12/20 09:57:24;;;;;;;0.40;0.40;;;1.50;99.90;;;;;;5089269;28;20430;-69
2021/12/20 10:00:14;;;;;;;1.00;0.80;;;1.60;99.90;;;;;;5081306;28;20454;-70
2021/12/20 10:03:01;;;;;;;5.87;1.93;;;1.60;99.90;;;;;;5075433;28;20431;-69
2021/12/20 10:05:52;;;;;;;0.97;0.70;;;1.60;99.90;;;;;;5080013;28;20554;-69
2021/12/20 10:08:49;;;;;;;0.50;0.50;;;1.60;99.90;;;;;;5079106;28;20508;-70
2021/12/20 10:11:38;;;;;;;1.17;0.80;;;1.60;99.90;;;;;;5076205;28;20427;-69
2021/12/20 10:14:25;;;;;;;0.40;0.40;;;1.60;99.90;;;;;;5074826;28;20492;-70
2021/12/20 10:17:12;;;;;;;0.50;0.50;;;1.60;99.90;;;;;;5072811;28;20453;-69
2021/12/20 10:20:17;;;;;;;0.73;0.70;;;1.70;99.90;;;;;;5079567;28;20442;-69
2021/12/20 10:23:13;;;;;;;0.50;0.50;;;1.80;99.90;;;;;;5073733;28;20417;-70
2021/12/20 10:26:02;;;;;;;0.87;0.87;;;1.90;99.90;;;;;;5091466;28;20425;-69
2021/12/20 10:28:52;;;;;;;0.70;0.70;;;1.90;99.90;;;;;;5077322;28;20439;-69
2021/12/20 10:31:39;;;;;;;0.87;0.87;;;2.00;99.90;;;;;;5082645;28;20436;-69
2021/12/20 10:34:35;;;;;;;1.53;0.80;;;2.10;99.90;;;;;;5076010;28;20499;-70
2021/12/20 10:37:39;;;;;;;0.73;0.73;;;2.10;99.90;;;;;;5075350;28;20420;-69
2021/12/20 10:40:26;;;;;;;0.50;0.50;;;2.10;99.90;;;;;;5093593;28;20442;-70
2021/12/20 10:43:15;;;;;;;0.43;0.43;;;2.20;99.90;;;;;;5073832;28;20473;-70
2021/12/20 10:46:12;;;;;;;0.63;0.63;;;2.30;99.90;;;;;;5095506;28;20795;-70
2021/12/20 10:49:01;;;;;;;1.53;1.43;;;2.30;99.90;;;;;;5093969;28;20463;-69
2021/12/20 10:51:51;;;;;;;0.50;0.50;;;2.30;99.90;;;;;;5094554;28;20415;-70
2021/12/20 10:54:43;;;;;;;0.47;0.47;;;2.30;99.90;;;;;;5093379;28;20993;-69
2021/12/20 10:57:30;;;;;;;0.60;0.60;;;2.40;99.90;;;;;;5093356;28;20430;-69
2021/12/20 11:00:22;;;;;;;0.60;0.60;;;2.40;99.90;;;;;;5091998;28;20458;-70
2021/12/20 11:03:20;;;;;;;0.40;0.40;;;2.50;99.90;;;;;;5092736;28;20596;-71
2021/12/20 11:06:25;;;;;;;1.30;1.03;;;2.40;99.90;;;;;;5093344;28;20422;-70
2021/12/20 11:09:18;;;;;;;3.23;1.17;;;2.50;99.90;;;;;;5070285;28;20817;-71
2021/12/20 11:12:07;;;;;;;1.13;0.90;;;2.50;99.90;;;;;;5087699;28;20462;-71
2021/12/20 11:14:59;;;;;;;0.60;0.60;;;2.50;99.90;;;;;;5094454;28;21013;-71
2021/12/20 11:17:47;;;;;;;1.17;1.17;;;2.50;99.90;;;;;;5112410;28;20510;-70
2021/12/20 11:20:35;;;;;;;0.70;0.70;;;2.60;99.90;;;;;;5089981;28;20876;-70
2021/12/20 11:23:26;;;;;;;0.90;0.70;;;2.70;99.90;;;;;;5085994;28;20427;-71
2021/12/20 11:26:13;;;;;;;0.50;0.50;;;2.70;99.90;;;;;;5104886;28;20437;-70
2021/12/20 11:29:00;;;;;;;0.50;0.50;;;2.70;99.90;;;;;;5109175;28;20448;-71
2021/12/20 11:31:48;;;;;;;0.67;0.67;;;2.80;99.90;;;;;;5112711;28;20957;-71
2021/12/20 11:34:35;;;;;;;0.90;0.90;;;2.90;99.90;;;;;;5092048;28;20986;-71
2021/12/20 11:37:25;;;;;;;2.07;1.17;;;3.00;99.90;;;;;;5092329;28;20425;-72
2021/12/20 11:40:14;;;;;;;0.40;0.40;;;3.00;99.90;;;;;;5082109;28;20489;-71
2021/12/20 11:43:01;;;;;;;1.03;0.93;;;3.00;99.90;;;;;;5110797;28;20425;-70
2021/12/20 11:45:49;;;;;;;0.40;0.40;;;3.00;99.90;;;;;;5102642;28;20429;-71
2021/12/20 11:48:38;;;;;;;0.50;0.50;;;2.90;99.90;;;;;;5114548;28;20429;-71
2021/12/20 11:51:26;;;;;;;0.40;0.40;;;2.80;99.90;;;;;;5111301;28;20801;-70
2021/12/20 11:54:37;;;;;;;0.50;0.50;;;2.80;99.90;;;;;;5126372;28;20434;-71
2021/12/20 11:57:43;;;;;;;0.43;0.43;;;2.70;99.90;;;;;;5100962;28;20485;-68
2021/12/20 12:00:32;;;;;;;0.67;0.67;;;2.80;99.90;;;;;;5120317;28;20470;-70
2021/12/20 12:03:21;;;;;;;0.60;0.60;;;2.80;99.90;;;;;;5109843;28;20489;-70
2021/12/20 12:06:10;;;;;;;0.90;0.90;;;2.90;99.90;;;;;;5112954;28;20484;-70
2021/12/20 12:08:59;;;;;;;0.57;0.57;;;2.90;99.90;;;;;;5102573;28;20518;-70
2021/12/20 12:11:47;;;;;;;0.50;0.50;;;2.90;99.90;;;;;;5134766;28;20453;-72
2021/12/20 12:15:02;;;;;;;1.17;0.80;;;3.10;99.90;;;;;;5095268;28;20427;-71
2021/12/20 12:17:56;;;;;;;0.50;0.50;;;3.30;99.90;;;;;;5115604;28;20487;-70
2021/12/20 12:20:48;;;;;;;0.50;0.50;;;3.50;99.90;;;;;;5114309;28;20457;-71
2021/12/20 12:23:44;;;;;;;0.50;0.50;;;3.50;99.90;;;;;;5106302;28;20433;-70
2021/12/20 12:26:34;;;;;;;0.60;0.60;;;3.50;99.90;;;;;;5103554;28;20965;-70
2021/12/20 12:29:24;;;;;;;0.50;0.50;;;3.50;99.90;;;;;;5089633;28;20441;-71
2021/12/20 12:32:11;;;;;;;0.57;0.57;;;3.50;99.90;;;;;;5112979;28;20483;-70
2021/12/20 12:34:58;;;;;;;0.40;0.40;;;3.40;99.90;;;;;;5115174;28;20477;-70
2021/12/20 12:37:45;;;;;;;0.40;0.40;;;3.40;99.90;;;;;;5115853;28;20429;-70
2021/12/20 12:40:33;;;;;;;0.50;0.50;;;3.30;99.90;;;;;;5116971;28;20448;-71
2021/12/20 12:43:42;;;;;;;0.50;0.50;;;3.20;99.90;;;;;;5103030;28;20426;-69
2021/12/20 12:46:53;;;;;;;0.70;0.50;;;3.20;99.90;;;;;;5133928;28;20476;-71
2021/12/20 12:49:57;;;;;;;1.43;1.33;;;3.20;99.90;;;;;;5116231;28;20442;-70
2021/12/20 12:52:46;;;;;;;0.50;0.50;;;3.30;99.90;;;;;;5126360;28;20434;-70
2021/12/20 12:55:33;;;;;;;0.50;0.50;;;3.30;99.90;;;;;;5119660;28;20457;-70
2021/12/20 12:58:23;;;;;;;0.50;0.50;;;3.40;99.90;;;;;;5117299;28;20475;-70
2021/12/20 13:01:10;;;;;;;0.40;0.40;;;3.60;99.90;;;;;;5080527;28;20414;-71
2021/12/20 13:03:58;;;;;;;0.77;0.60;;;3.60;99.90;;;;;;5114856;28;20422;-71
2021/12/20 13:06:46;;;;;;;0.50;0.50;;;3.50;99.90;;;;;;5114706;28;20421;-71
2021/12/20 13:09:42;;;;;;;0.50;0.50;;;3.60;99.90;;;;;;5115819;27;20515;-71
2021/12/20 13:12:37;;;;;;;1.00;1.00;;;3.40;99.90;;;;;;5113985;28;20550;-67
2021/12/20 13:15:32;;;;;;;0.50;0.50;;;3.40;99.90;;;;;;5082601;28;20468;-72
2021/12/20 13:18:27;;;;;;;0.57;0.57;;;3.30;99.90;;;;;;5114304;28;20421;-70
2021/12/20 13:21:20;;;;;;;0.70;0.70;;;3.40;99.90;;;;;;5112805;28;20441;-71
2021/12/20 13:24:14;;;;;;;0.50;0.50;;;3.40;99.90;;;;;;5113470;28;20439;-71
2021/12/20 13:27:05;;;;;;;0.50;0.50;;;3.50;99.90;;;;;;5099313;28;20448;-70
2021/12/20 13:29:52;;;;;;;0.40;0.40;;;3.50;99.90;;;;;;5087115;28;20458;-71
2021/12/20 13:32:39;;;;;;;0.67;0.47;;;3.80;99.90;;;;;;5094542;28;20433;-71
2021/12/20 13:35:28;;;;;;;4.27;2.10;;;4.10;99.90;;;;;;5075265;28;20508;-71
2021/12/20 13:38:23;;;;;;;3.03;1.67;;;4.40;99.90;;;;;;5073456;28;20919;-71
2021/12/20 13:41:12;;;;;;;0.50;0.50;;;4.50;99.90;;;;;;5072173;28;20458;-71
2021/12/20 13:44:05;;;;;;;0.60;0.60;;;4.70;99.90;;;;;;5077079;28;20454;-71
2021/12/20 13:46:54;;;;;;;0.47;0.47;;;4.80;99.90;;;;;;5081959;28;20432;-70
2021/12/20 13:49:42;;;;;;;0.60;0.60;;;5.00;99.90;;;;;;5077043;28;20441;-69
2021/12/20 13:52:29;;;;;;;0.50;0.50;;;5.20;99.90;;;;;;5092603;28;20910;-70
2021/12/20 13:55:17;;;;;;;0.50;0.50;;;5.30;99.90;;;;;;5091534;28;20465;-69
2021/12/20 13:58:04;;;;;;;0.50;0.50;;;5.10;99.90;;;;;;5092194;28;20499;-70
2021/12/20 14:00:51;;;;;;;0.80;0.80;;;4.80;99.90;;;;;;5090017;28;20838;-71
2021/12/20 14:03:40;;;;;;;0.50;0.50;;;4.70;99.90;;;;;;5091863;28;20487;-72
2021/12/20 14:06:39;;;;;;;0.50;0.50;;;4.80;99.90;;;;;;5091813;28;20434;-71
2021/12/20 14:09:35;;;;;;;0.50;0.50;;;4.70;99.90;;;;;;5091157;28;20450;-71
2021/12/20 14:12:24;;;;;;;2.10;2.00;;;4.70;99.90;;;;;;5091439;28;21045;-68
2021/12/20 14:15:13;;;;;;;2.43;2.10;;;4.70;99.90;;;;;;5086905;28;20437;-70
2021/12/20 14:18:02;;;;;;;0.47;0.47;;;4.60;99.90;;;;;;5092639;28;20425;-69
2021/12/20 14:20:51;;;;;;;1.03;1.03;;;4.50;99.90;;;;;;5089784;28;20450;-69
2021/12/20 14:23:42;;;;;;;0.60;0.60;;;4.30;99.90;;;;;;5088749;28;21090;-72
2021/12/20 14:26:31;;;;;;;0.50;0.50;;;4.30;99.90;;;;;;5092597;28;20802;-70
2021/12/20 14:29:20;;;;;;;0.50;0.50;;;4.20;99.90;;;;;;5087631;28;20447;-70
2021/12/20 14:32:09;;;;;;;0.73;0.73;;;4.10;99.90;;;;;;5086641;28;20419;-70
2021/12/20 14:34:56;;;;;;;0.87;0.50;;;4.10;99.90;;;;;;5092280;28;20426;-70
2021/12/20 14:37:43;;;;;;;0.50;0.50;;;4.10;99.90;;;;;;5091706;28;20791;-69
2021/12/20 14:40:42;;;;;;;0.50;0.50;;;4.00;99.90;;;;;;5092204;28;20536;-69
2021/12/20 14:43:31;;;;;;;0.50;0.50;;;4.00;99.90;;;;;;5082569;28;20438;-70
2021/12/20 14:46:28;;;;;;;0.47;0.47;;;4.00;99.90;;;;;;5091044;28;20434;-69
2021/12/20 14:49:19;;;;;;;1.60;0.80;;;3.90;99.90;;;;;;5092269;28;20447;-69
2021/12/20 14:52:11;;;;;;;1.03;0.93;;;3.90;99.90;;;;;;5079641;28;20430;-68
2021/12/20 14:55:06;;;;;;;0.47;0.47;;;3.90;99.90;;;;;;5086713;28;20454;-69
2021/12/20 14:57:53;;;;;;;0.80;0.80;;;3.90;99.90;;;;;;5095250;28;20435;-70
2021/12/20 15:00:44;;;;;;;0.70;0.70;;;3.80;99.90;;;;;;5098572;28;20462;-69